Aérodrome :
LOGIN :

S'inscrire | Disclaimer

   EN    FR    IT 

 










Légende :    VFR   VFR Marginal   IFR   IFR Intensif   IFR Très Intensif
Visi : 
Plafond : 
>= 8 km
>= 3000ft
5 à 8 km
1000 à 3000 ft
1500m à 5 km
500 à 1000 ft
800 à 1500m
200 à 500 ft
< 800m
< 200 ft
Symboles :   Orages  Brouillard  Fortes neiges  Fortes précipitations  Vent > 20 kt
SIGMETs :   Divers  Orages  Givrage  Turbulence  Onde Orograph.  Cendres Volcan.







- Altitude de l'aérodrome : 464 ft
- Code IATA : EVX
- Voir les cartes d'approche


LFOE - Evreux

DERNIER METAR :
  • 230930Z AUTO 20009KT 170V230 CAVOK 17/11 Q1016 NOSIG

METARs EXPIRÉS :
  • 230900Z AUTO 20011KT CAVOK 16/12 Q1016 NOSIG
  • 230830Z AUTO 21010KT 9999 FEW011 15/12 Q1016 NOSIG
  • 230800Z AUTO 21011KT 9999 SCT010 14/12 Q1016 NOSIG
  • 230730Z AUTO 20008KT 9999 FEW009 13/12 Q1016 NOSIG
  • 230700Z AUTO 21006KT CAVOK 13/12 Q1015 NOSIG

TAF TAF LFOE
Valide du 23 à 09h jusqu'au 24 à 09h UTC


230800Z 2309/2409 21010KT CAVOK
BECMG 2309/2312 21012G22KT
TEMPO 2321/2403 4000 -RA BKN010
BECMG 2403/2406 4000 -RA BKN008
TEMPO 2406/2409 2000 RA BKN005
Pas de NOTAMs connus pour ce terrain.



MET'MAP, la Météo Aéronautique d'un coup d'oeil ! - Copyright ORBIFLY Décembre 2007 - Disclaimer

ORBIFLY MET'MAP TEAM :

Programmation & Développement : Alexandra Zaïnal
Conception & Développement : Baudouin d'Aumeries
Co-Programmation & Développement : Marc-Olivier Méhu
Soutien technique & logistique : Manuel Goepfert

Contact : metmap@orbifly.com




SOURCES & CREDITS :

   NOAA